Time;durP1;ratioP1;P1;durP2;ratioP2;P2;SDS_P1;SDS_P2;PMS_P1;PMS_P2;Temp;Humidity;BMP_temperature;BMP_pressure;BME280_temperature;BME280_humidity;BME280_pressure;Samples;Min_cycle;Max_cycle;Signal;HPM_P1;HPM_P2
2023/03/07 00:01:25;;;;;;;3.92;3.13;;;;;;;;;;5012568;28;20049;-32
2023/03/07 00:03:53;;;;;;;3.97;3.30;;;;;;;;;;5012374;28;20045;-32
2023/03/07 00:06:21;;;;;;;3.78;3.10;;;;;;;;;;5012735;28;20056;-33
2023/03/07 00:08:49;;;;;;;3.95;3.20;;;;;;;;;;5012230;28;20060;-34
2023/03/07 00:11:16;;;;;;;4.45;3.30;;;;;;;;;;5012487;28;20052;-33
2023/03/07 00:13:43;;;;;;;4.53;3.25;;;;;;;;;;5012176;28;20060;-32
2023/03/07 00:16:13;;;;;;;4.55;3.05;;;17.70;46.60;;;;;;5012679;28;20045;-35
2023/03/07 00:18:40;;;;;;;4.20;3.40;;;;;;;;;;5012248;28;20052;-33
2023/03/07 00:21:08;;;;;;;3.78;3.00;;;17.70;46.30;;;;;;5012265;28;20056;-32
2023/03/07 00:23:36;;;;;;;4.47;3.10;;;;;;;;;;5011908;28;20104;-31
2023/03/07 00:26:03;;;;;;;4.68;2.90;;;17.70;44.90;;;;;;5012319;28;20136;-31
2023/03/07 00:28:30;;;;;;;4.38;3.05;;;;;;;;;;5012553;28;20058;-36
2023/03/07 00:30:59;;;;;;;3.75;2.80;;;17.80;46.80;;;;;;5012260;28;20054;-31
2023/03/07 00:33:26;;;;;;;3.78;2.70;;;;;;;;;;5011545;28;20061;-35
2023/03/07 00:35:57;;;;;;;3.80;2.75;;;17.70;46.90;;;;;;5011792;28;20062;-32
2023/03/07 00:38:25;;;;;;;3.13;2.70;;;;;;;;;;5012398;28;20056;-32
2023/03/07 00:40:59;;;;;;;2.95;2.65;;;17.80;46.80;;;;;;5012201;28;20048;-35
2023/03/07 00:43:26;;;;;;;3.45;2.67;;;;;;;;;;5011944;28;20392;-31
2023/03/07 00:45:53;;;;;;;3.03;2.42;;;;;;;;;;5011887;28;20064;-31
2023/03/07 00:48:20;;;;;;;3.10;2.22;;;;;;;;;;5011925;28;20056;-31
2023/03/07 00:50:47;;;;;;;3.08;2.30;;;;;;;;;;5012037;28;20124;-33
2023/03/07 00:53:14;;;;;;;3.20;2.50;;;;;;;;;;5011714;28;20050;-31
2023/03/07 00:55:43;;;;;;;2.65;1.98;;;;;;;;;;5012101;28;20048;-33
2023/03/07 00:58:10;;;;;;;3.55;2.20;;;;;;;;;;5012104;28;20053;-32
2023/03/07 01:00:37;;;;;;;2.55;2.10;;;;;;;;;;5012099;28;20052;-32
2023/03/07 01:03:04;;;;;;;2.30;1.95;;;;;;;;;;5011352;28;20060;-31
2023/03/07 01:05:31;;;;;;;2.30;1.90;;;;;;;;;;5011915;28;20722;-31
2023/03/07 01:07:58;;;;;;;2.22;1.92;;;;;;;;;;5012170;28;20049;-31
2023/03/07 01:10:28;;;;;;;2.10;1.80;;;;;;;;;;5013015;28;20053;-31
2023/03/07 01:12:56;;;;;;;2.25;1.80;;;;;;;;;;5015500;28;20141;-31
2023/03/07 01:15:23;;;;;;;1.70;1.55;;;;;;;;;;5015723;28;20053;-31
2023/03/07 01:17:50;;;;;;;2.20;1.67;;;;;;;;;;5015653;28;20056;-33
2023/03/07 01:20:17;;;;;;;2.63;1.95;;;;;;;;;;5015864;28;20129;-31
2023/03/07 01:22:44;;;;;;;2.15;1.77;;;;;;;;;;5015420;28;20054;-35
2023/03/07 01:25:12;;;;;;;1.60;1.40;;;;;;;;;;5015277;28;20060;-31
2023/03/07 01:27:39;;;;;;;2.17;1.40;;;;;;;;;;5015384;28;20088;-31
2023/03/07 01:30:08;;;;;;;1.75;1.45;;;;;;;;;;5015491;28;20053;-31
2023/03/07 01:32:35;;;;;;;1.30;1.20;;;;;;;;;;5015108;28;20133;-31
2023/03/07 01:35:02;;;;;;;1.40;1.20;;;;;;;;;;5015419;28;20049;-32
2023/03/07 01:37:29;;;;;;;1.45;1.17;;;;;;;;;;5014862;28;20096;-31
2023/03/07 01:39:56;;;;;;;1.55;1.30;;;;;;;;;;5015259;28;20050;-31
2023/03/07 01:42:23;;;;;;;1.08;0.98;;;;;;;;;;5015084;28;20426;-32
2023/03/07 01:45:04;;;;;;;1.58;1.10;;;18.20;45.50;;;;;;5015076;28;20488;-33
2023/03/07 01:47:33;;;;;;;1.60;1.23;;;;;;;;;;5015064;28;20056;-35
2023/03/07 01:50:00;;;;;;;1.38;1.17;;;;;;;;;;5015177;28;20050;-31
2023/03/07 01:52:29;;;;;;;1.63;1.23;;;;;;;;;;5014738;28;20426;-33
2023/03/07 01:54:56;;;;;;;1.10;1.00;;;;;;;;;;5014995;28;20053;-31
2023/03/07 01:57:24;;;;;;;1.52;1.15;;;;;;;;;;5014937;28;20054;-31
2023/03/07 01:59:54;;;;;;;1.30;1.10;;;18.30;45.10;;;;;;5015194;28;20054;-33
2023/03/07 02:02:22;;;;;;;1.38;1.10;;;;;;;;;;5014621;28;20046;-32
2023/03/07 02:04:51;;;;;;;1.20;1.10;;;;;;;;;;5014867;28;20053;-31
2023/03/07 02:07:18;;;;;;;1.40;1.00;;;18.80;76.00;;;;;;5014868;28;20053;-32
2023/03/07 02:09:45;;;;;;;1.42;1.10;;;;;;;;;;5014332;28;20050;-31
2023/03/07 02:12:12;;;;;;;1.05;0.95;;;;;;;;;;5014728;28;20399;-32
2023/03/07 02:14:39;;;;;;;1.27;0.90;;;;;;;;;;5014648;28;20383;-31
2023/03/07 02:17:06;;;;;;;1.25;0.80;;;;;;;;;;5014616;28;20054;-32
2023/03/07 02:19:39;;;;;;;1.10;0.90;;;;;;;;;;5014443;28;20567;-32
2023/03/07 02:22:10;;;;;;;1.20;1.05;;;;;;;;;;5013535;28;20050;-31
2023/03/07 02:24:39;;;;;;;1.13;0.90;;;;;;;;;;5014075;28;20559;-31
2023/03/07 02:27:08;;;;;;;1.52;0.90;;;;;;;;;;5014635;28;20152;-34
2023/03/07 02:29:35;;;;;;;1.67;0.90;;;;;;;;;;5014316;28;20049;-35
2023/03/07 02:32:03;;;;;;;1.80;0.90;;;;;;;;;;5014015;28;20128;-38
2023/03/07 02:34:30;;;;;;;0.95;0.80;;;;;;;;;;5014154;28;20057;-31
2023/03/07 02:36:59;;;;;;;1.63;0.80;;;;;;;;;;5013488;28;20050;-31
2023/03/07 02:39:28;;;;;;;0.95;0.82;;;;;;;;;;5014457;28;20410;-33
2023/03/07 02:41:55;;;;;;;1.10;0.70;;;18.50;75.30;;;;;;5014279;28;20088;-32
2023/03/07 02:44:24;;;;;;;0.80;0.80;;;18.50;44.90;;;;;;5013898;28;20160;-39
2023/03/07 02:46:51;;;;;;;0.70;0.70;;;;;;;;;;5013941;28;20414;-33
2023/03/07 02:49:18;;;;;;;2.05;0.70;;;;;;;;;;5013858;28;20525;-31
2023/03/07 02:51:45;;;;;;;1.20;0.80;;;;;;;;;;5013666;28;20056;-34
2023/03/07 02:54:12;;;;;;;2.05;0.80;;;;;;;;;;5013549;28;20050;-31
2023/03/07 02:56:39;;;;;;;0.70;0.70;;;;;;;;;;5014094;28;20046;-35
2023/03/07 02:59:06;;;;;;;0.88;0.80;;;;;;;;;;5013898;28;20060;-31
2023/03/07 03:01:34;;;;;;;1.40;0.90;;;18.50;44.80;;;;;;5013912;28;20065;-35
2023/03/07 03:04:01;;;;;;;1.40;0.75;;;;;;;;;;5013384;28;20053;-31
2023/03/07 03:06:28;;;;;;;0.82;0.70;;;;;;;;;;5013536;28;20054;-32
2023/03/07 03:08:55;;;;;;;1.73;0.88;;;;;;;;;;5013813;28;20053;-32
2023/03/07 03:11:22;;;;;;;1.25;0.90;;;;;;;;;;5013604;28;20049;-31
2023/03/07 03:13:49;;;;;;;1.15;0.80;;;;;;;;;;5013442;28;20088;-32
2023/03/07 03:16:16;;;;;;;1.13;0.75;;;17.40;74.30;;;;;;5013379;28;20406;-31
2023/03/07 03:18:44;;;;;;;1.70;0.75;;;18.40;44.70;;;;;;5013290;28;20053;-31
2023/03/07 03:21:11;;;;;;;1.92;1.00;;;;;;;;;;5013209;28;20509;-31
2023/03/07 03:23:38;;;;;;;1.77;0.80;;;;;;;;;;5013315;28;20045;-32
2023/03/07 03:26:08;;;;;;;0.55;0.50;;;;;;;;;;5013158;28;20050;-31
2023/03/07 03:28:35;;;;;;;0.98;0.70;;;;;;;;;;5013456;28;20454;-33
2023/03/07 03:31:03;;;;;;;2.28;0.82;;;;;;;;;;5012920;28;20053;-31
2023/03/07 03:33:30;;;;;;;1.17;0.80;;;;;;;;;;5012854;28;20517;-33
2023/03/07 03:35:59;;;;;;;0.98;0.70;;;18.50;44.60;;;;;;5012651;28;20064;-31
2023/03/07 03:38:26;;;;;;;2.38;0.75;;;;;;;;;;5013047;28;20050;-31
2023/03/07 03:40:53;;;;;;;1.45;0.70;;;;;;;;;;5012977;28;20056;-32
2023/03/07 03:43:20;;;;;;;1.83;0.88;;;;;;;;;;5012804;28;20056;-31
2023/03/07 03:45:54;;;;;;;3.00;0.90;;;;;;;;;;5012796;28;20060;-31
2023/03/07 03:48:21;;;;;;;1.30;0.80;;;;;;;;;;5012866;28;20056;-31
2023/03/07 03:50:48;;;;;;;1.63;0.80;;;;;;;;;;5012740;28;20056;-32
2023/03/07 03:53:16;;;;;;;0.82;0.70;;;;;;;;;;5012614;28;20057;-34
2023/03/07 03:55:43;;;;;;;1.30;0.85;;;;;;;;;;5012921;28;20396;-32
2023/03/07 03:58:10;;;;;;;1.95;0.75;;;;;;;;;;5011528;28;20464;-32
2023/03/07 04:00:38;;;;;;;1.20;0.80;;;;;;;;;;5012647;28;20458;-31
2023/03/07 04:03:05;;;;;;;1.83;0.90;;;;;;;;;;5012555;28;20050;-36
2023/03/07 04:05:33;;;;;;;1.80;0.80;;;;;;;;;;5012551;28;20049;-31
2023/03/07 04:08:00;;;;;;;1.48;0.90;;;;;;;;;;5012837;28;20081;-31
2023/03/07 04:10:29;;;;;;;2.70;0.93;;;;;;;;;;5012401;28;20057;-31
2023/03/07 04:12:56;;;;;;;1.52;0.82;;;;;;;;;;5012187;28;20056;-31
2023/03/07 04:15:23;;;;;;;1.13;0.73;;;;;;;;;;5012638;28;20050;-31
2023/03/07 04:17:50;;;;;;;1.75;0.85;;;;;;;;;;5012399;28;20530;-32
2023/03/07 04:20:17;;;;;;;1.33;1.08;;;;;;;;;;5012182;28;20050;-34
2023/03/07 04:22:45;;;;;;;1.55;0.70;;;;;;;;;;5012202;28;20045;-32
2023/03/07 04:25:12;;;;;;;1.27;0.80;;;;;;;;;;5012218;28;20137;-32
2023/03/07 04:27:40;;;;;;;1.58;0.85;;;18.70;44.50;;;;;;5012537;28;20053;-31
2023/03/07 04:30:07;;;;;;;1.45;0.85;;;;;;;;;;5012520;28;20138;-34
2023/03/07 04:32:35;;;;;;;1.85;0.80;;;;;;;;;;5011818;28;20060;-32
2023/03/07 04:35:02;;;;;;;1.13;0.70;;;;;;;;;;5011963;28;20056;-31
2023/03/07 04:37:30;;;;;;;0.95;0.70;;;;;;;;;;5011739;28;20129;-31
2023/03/07 04:39:57;;;;;;;1.25;0.70;;;;;;;;;;5012226;28;20050;-32
2023/03/07 04:42:24;;;;;;;1.70;0.90;;;;;;;;;;5011955;28;20406;-33
2023/03/07 04:44:52;;;;;;;1.10;0.70;;;18.50;44.40;;;;;;5011459;28;20522;-31
2023/03/07 04:47:19;;;;;;;2.20;0.70;;;;;;;;;;5012253;28;20072;-31
2023/03/07 04:49:46;;;;;;;2.40;1.00;;;;;;;;;;5010590;28;20403;-36
2023/03/07 04:52:13;;;;;;;1.52;0.80;;;;;;;;;;5011807;28;20491;-32
2023/03/07 04:54:40;;;;;;;2.03;0.80;;;;;;;;;;5011736;28;20065;-36
2023/03/07 04:57:07;;;;;;;0.98;0.60;;;;;;;;;;5012277;28;20053;-31
2023/03/07 04:59:37;;;;;;;1.08;0.70;;;;;;;;;;5011909;28;20483;-36
2023/03/07 05:02:06;;;;;;;1.15;0.50;;;18.60;44.30;;;;;;5011641;28;20050;-37
2023/03/07 05:04:33;;;;;;;1.83;0.80;;;;;;;;;;5011862;28;20056;-35
2023/03/07 05:07:00;;;;;;;0.95;0.80;;;18.50;74.40;;;;;;5011805;28;20046;-32
2023/03/07 05:09:27;;;;;;;3.03;1.10;;;18.20;51.40;;;;;;5012017;28;20410;-33
2023/03/07 05:11:54;;;;;;;1.25;0.82;;;;;;;;;;5011899;28;20052;-32
2023/03/07 05:14:21;;;;;;;1.77;0.95;;;18.50;46.20;;;;;;5011842;28;20050;-36
2023/03/07 05:16:48;;;;;;;2.00;0.70;;;;;;;;;;5011632;28;20045;-31
2023/03/07 05:19:16;;;;;;;2.28;0.80;;;18.70;44.20;;;;;;5011652;28;20046;-31
2023/03/07 05:21:43;;;;;;;1.10;0.75;;;;;;;;;;5011710;28;20049;-35
2023/03/07 05:24:10;;;;;;;1.58;0.90;;;;;;;;;;5011624;28;20132;-31
2023/03/07 05:26:37;;;;;;;1.92;0.90;;;;;;;;;;5011844;28;20541;-35
2023/03/07 05:29:04;;;;;;;3.22;1.00;;;;;;;;;;5011669;28;20527;-32
2023/03/07 05:31:32;;;;;;;1.65;0.80;;;;;;;;;;5011255;28;20048;-36
2023/03/07 05:33:59;;;;;;;1.15;0.60;;;;;;;;;;5011300;28;20065;-32
2023/03/07 05:36:27;;;;;;;2.10;0.82;;;;;;;;;;5011430;28;20046;-33
2023/03/07 05:38:55;;;;;;;2.45;1.00;;;;;;;;;;5011344;28;20392;-32
2023/03/07 05:41:23;;;;;;;1.67;0.90;;;;;;;;;;5011798;28;20112;-31
2023/03/07 05:43:50;;;;;;;1.75;0.90;;;;;;;;;;5011032;28;20517;-35
2023/03/07 05:46:17;;;;;;;1.58;1.00;;;;;;;;;;5011336;28;20054;-32
2023/03/07 05:48:44;;;;;;;2.17;0.93;;;;;;;;;;5011537;28;20056;-35
2023/03/07 05:51:11;;;;;;;1.73;0.80;;;18.50;74.50;;;;;;5011636;28;20136;-31
2023/03/07 05:53:39;;;;;;;2.28;1.00;;;18.70;44.00;;;;;;5011235;28;20046;-31
2023/03/07 05:56:06;;;;;;;2.75;1.00;;;;;;;;;;5011475;28;20129;-31
2023/03/07 05:58:34;;;;;;;2.15;0.90;;;;;;;;;;5014143;28;20056;-31
2023/03/07 06:01:01;;;;;;;0.88;0.65;;;18.60;43.70;;;;;;5014505;28;20510;-33
2023/03/07 06:03:28;;;;;;;2.33;0.80;;;;;;;;;;5014069;28;20049;-34
2023/03/07 06:05:56;;;;;;;2.13;1.00;;;;;;;;;;5011311;28;20046;-31
2023/03/07 06:08:23;;;;;;;3.42;0.98;;;;;;;;;;5010743;28;20077;-34
2023/03/07 06:10:51;;;;;;;1.30;0.80;;;;;;;;;;5014435;28;20046;-31
2023/03/07 06:13:19;;;;;;;2.97;0.93;;;;;;;;;;5013909;28;20511;-31
2023/03/07 06:15:48;;;;;;;2.90;1.00;;;18.70;74.40;;;;;;5011505;28;20052;-32
2023/03/07 06:18:15;;;;;;;2.10;0.90;;;;;;;;;;5014221;28;20054;-31
2023/03/07 06:20:42;;;;;;;2.95;1.17;;;;;;;;;;5014452;28;20046;-32
2023/03/07 06:23:09;;;;;;;1.13;0.75;;;;;;;;;;5013729;28;20639;-31
2023/03/07 06:25:36;;;;;;;1.67;0.80;;;20.30;74.60;;;;;;5014119;28;20046;-31
2023/03/07 06:28:04;;;;;;;2.20;0.95;;;18.90;43.70;;;;;;5013866;28;20045;-31
2023/03/07 06:30:31;;;;;;;1.63;0.80;;;;;;;;;;5013998;28;20742;-31
2023/03/07 06:32:58;;;;;;;1.95;0.80;;;;;;;;;;5013209;28;20554;-33
2023/03/07 06:35:25;;;;;;;1.83;0.85;;;;;;;;;;5012044;28;20050;-31
2023/03/07 06:37:52;;;;;;;2.60;1.00;;;;;;;;;;5013411;28;20066;-31
2023/03/07 06:40:19;;;;;;;1.52;0.85;;;;;;;;;;5013933;28;20049;-33
2023/03/07 06:42:46;;;;;;;2.70;0.90;;;;;;;;;;5013324;28;20447;-31
2023/03/07 06:45:14;;;;;;;1.52;0.85;;;19.30;43.40;;;;;;5013452;28;20617;-32
2023/03/07 06:47:41;;;;;;;2.15;1.00;;;;;;;;;;5013543;28;20163;-31
2023/03/07 06:50:09;;;;;;;2.88;1.00;;;19.30;43.10;;;;;;5014065;28;20421;-31
2023/03/07 06:52:36;;;;;;;3.47;1.13;;;;;;;;;;5013779;28;20046;-32
2023/03/07 06:55:03;;;;;;;1.45;0.80;;;;;;;;;;5013545;28;20053;-31
2023/03/07 06:57:32;;;;;;;3.13;1.02;;;;;;;;;;5013838;28;20056;-31
2023/03/07 06:59:59;;;;;;;3.25;1.00;;;19.40;73.30;;;;;;5014077;28;20061;-31
2023/03/07 07:02:27;;;;;;;2.15;1.00;;;19.70;42.20;;;;;;5013443;28;20053;-31
2023/03/07 07:04:56;;;;;;;1.77;0.90;;;;;;;;;;5013313;28;20046;-31
2023/03/07 07:07:23;;;;;;;2.45;1.05;;;;;;;;;;5013605;28;20073;-30
2023/03/07 07:09:50;;;;;;;1.80;0.90;;;;;;;;;;5011157;28;20052;-31
2023/03/07 07:12:17;;;;;;;2.38;0.80;;;;;;;;;;5013575;28;20050;-30
2023/03/07 07:14:44;;;;;;;3.63;1.02;;;;;;;;;;5013508;28;20355;-33
2023/03/07 07:17:11;;;;;;;3.28;0.90;;;19.70;65.80;;;;;;5013184;28;20521;-32
2023/03/07 07:19:39;;;;;;;3.05;1.00;;;19.90;42.60;;;;;;5013455;28;20049;-32
2023/03/07 07:22:10;;;;;;;1.98;0.93;;;;;;;;;;5013314;28;20054;-32
2023/03/07 07:24:37;;;;;;;2.90;0.90;;;;;;;;;;5013129;28;20052;-33
2023/03/07 07:27:05;;;;;;;3.30;1.20;;;;;;;;;;5013751;28;20391;-32
2023/03/07 07:29:31;;;;;;;2.45;0.73;;;19.90;72.80;;;;;;5012813;28;20418;-34
2023/03/07 07:31:58;;;;;;;2.15;0.98;;;;;;;;;;5013294;28;20089;-32
2023/03/07 07:34:25;;;;;;;1.45;0.95;;;;;;;;;;5012696;28;20052;-34
2023/03/07 07:36:53;;;;;;;1.58;0.70;;;20.20;72.80;;;;;;5012738;28;20056;-31
2023/03/07 07:39:20;;;;;;;4.15;1.15;;;19.90;72.90;;;;;;5001227;28;20053;-33
2023/03/07 07:41:47;;;;;;;2.30;0.90;;;;;;;;;;5004291;28;20446;-35
2023/03/07 07:44:14;;;;;;;4.07;1.00;;;;;;;;;;5007495;28;20054;-33
2023/03/07 07:46:41;;;;;;;2.80;0.88;;;;;;;;;;5011804;28;20045;-33
2023/03/07 07:49:08;;;;;;;1.83;0.80;;;20.60;73.00;;;;;;5012308;28;20054;-33
2023/03/07 07:51:35;;;;;;;1.65;0.90;;;20.50;72.50;;;;;;5012331;28;20053;-32
2023/03/07 07:54:03;;;;;;;1.65;0.80;;;;;;;;;;4993057;28;20050;-35
2023/03/07 07:56:30;;;;;;;3.08;1.00;;;;;;;;;;5000001;28;20060;-32
2023/03/07 07:58:57;;;;;;;3.22;1.00;;;;;;;;;;5012928;28;20046;-32
2023/03/07 08:01:25;;;;;;;3.92;1.00;;;;;;;;;;5012750;28;20419;-33
2023/03/07 08:03:52;;;;;;;2.00;1.05;;;;;;;;;;5012237;28;20042;-32
2023/03/07 08:06:19;;;;;;;2.05;0.95;;;;;;;;;;5012377;28;20049;-32
2023/03/07 08:08:46;;;;;;;3.53;0.98;;;;;;;;;;5012846;28;20049;-33
2023/03/07 08:11:15;;;;;;;2.15;0.95;;;;;;;;;;5012173;28;20100;-32
2023/03/07 08:13:42;;;;;;;1.25;0.70;;;;;;;;;;5012416;28;20046;-35
2023/03/07 08:16:10;;;;;;;1.83;0.88;;;;;;;;;;5007602;28;20054;-32
2023/03/07 08:18:37;;;;;;;0.80;0.60;;;;;;;;;;5002310;28;20046;-32
2023/03/07 08:21:04;;;;;;;1.88;0.90;;;;;;;;;;5010437;28;20061;-32
2023/03/07 08:23:31;;;;;;;1.83;0.70;;;20.30;72.90;;;;;;5012097;28;20418;-32
2023/03/07 08:26:02;;;;;;;2.25;0.80;;;20.40;41.80;;;;;;5011922;28;20054;-32
2023/03/07 08:28:30;;;;;;;1.98;1.10;;;;;;;;;;5012181;28;20064;-32
2023/03/07 08:30:57;;;;;;;2.10;1.00;;;;;;;;;;5012141;28;20050;-36
2023/03/07 08:33:24;;;;;;;1.23;0.75;;;20.30;72.00;;;;;;5011842;28;20414;-32
2023/03/07 08:35:51;;;;;;;2.28;0.90;;;;;;;;;;5011580;28;20708;-32
2023/03/07 08:38:18;;;;;;;1.98;0.77;;;;;;;;;;5011551;28;20049;-32
2023/03/07 08:40:45;;;;;;;1.42;0.85;;;;;;;;;;5009759;28;20058;-33
2023/03/07 08:43:12;;;;;;;2.80;1.05;;;;;;;;;;5011210;28;20046;-34
2023/03/07 08:45:41;;;;;;;1.73;0.70;;;20.50;41.80;;;;;;5009360;28;20068;-33
2023/03/07 08:48:08;;;;;;;1.20;0.57;;;20.50;41.10;;;;;;5009129;28;20491;-33
2023/03/07 08:50:35;;;;;;;2.30;0.90;;;;;;;;;;5011778;28;20054;-31
2023/03/07 08:53:02;;;;;;;1.90;0.65;;;19.50;71.20;;;;;;5011276;28;20050;-35
2023/03/07 08:55:29;;;;;;;2.33;0.80;;;;;;;;;;5011652;28;20061;-32
2023/03/07 08:57:56;;;;;;;1.67;0.80;;;20.10;71.40;;;;;;5011887;28;20046;-32
2023/03/07 09:00:24;;;;;;;2.15;0.60;;;;;;;;;;5011615;28;20045;-32
2023/03/07 09:02:53;;;;;;;1.58;0.80;;;;;;;;;;5011763;28;20125;-33
2023/03/07 09:05:20;;;;;;;1.73;0.93;;;;;;;;;;5011746;28;20050;-35
2023/03/07 09:07:47;;;;;;;4.80;0.80;;;20.40;72.30;;;;;;5009904;28;20052;-32
2023/03/07 09:10:16;;;;;;;1.92;0.95;;;;;;;;;;4998882;28;20054;-34
2023/03/07 09:12:42;;;;;;;2.35;0.73;;;20.40;64.20;;;;;;5004770;28;20128;-31
2023/03/07 09:15:10;;;;;;;2.10;0.65;;;;;;;;;;5011594;28;20509;-32
2023/03/07 09:17:37;;;;;;;1.55;0.70;;;21.20;72.40;;;;;;5011814;28;20418;-31
2023/03/07 09:20:06;;;;;;;3.55;1.02;;;20.40;42.10;;;;;;5011442;28;20054;-32
2023/03/07 09:22:33;;;;;;;1.77;0.80;;;;;;;;;;5011375;28;20054;-33
2023/03/07 09:24:59;;;;;;;3.22;0.95;;;20.20;72.10;;;;;;5010265;28;20049;-31
2023/03/07 09:27:27;;;;;;;1.25;0.60;;;;;;;;;;5008604;28;20068;-36
2023/03/07 09:29:53;;;;;;;1.42;0.73;;;21.50;73.10;;;;;;5002816;28;20050;-32
2023/03/07 09:32:20;;;;;;;2.53;0.80;;;;;;;;;;5013168;28;20050;-34
2023/03/07 09:34:48;;;;;;;2.72;1.08;;;;;;;;;;5009408;28;20049;-34
2023/03/07 09:37:17;;;;;;;2.55;0.80;;;20.30;42.20;;;;;;5014415;28;20050;-31
2023/03/07 09:39:45;;;;;;;1.73;0.80;;;;;;;;;;5015129;28;20100;-32
2023/03/07 09:42:15;;;;;;;4.13;0.90;;;20.30;72.00;;;;;;5014784;28;20491;-32
2023/03/07 09:45:02;;;;;;;4.03;0.88;;;20.20;42.00;;;;;;5013790;28;20507;-31
2023/03/07 09:47:38;;;;;;;3.88;1.17;;;20.20;42.10;;;;;;5014790;28;20069;-35
2023/03/07 09:50:11;;;;;;;1.90;0.90;;;20.20;42.10;;;;;;5013942;28;20053;-40
2023/03/07 09:52:39;;;;;;;2.45;0.90;;;;;;;;;;5011520;28;20057;-38
2023/03/07 09:55:09;;;;;;;2.63;0.98;;;;;;;;;;5014456;28;20054;-38
2023/03/07 09:57:38;;;;;;;2.72;0.93;;;;;;;;;;5013269;28;20129;-38
2023/03/07 10:00:05;;;;;;;1.50;0.75;;;;;;;;;;5013878;28;20046;-36
2023/03/07 10:02:34;;;;;;;3.63;1.13;;;20.10;42.20;;;;;;5013918;28;20083;-37
2023/03/07 10:05:04;;;;;;;3.95;0.80;;;19.90;42.30;;;;;;5014003;28;20488;-39
2023/03/07 10:07:31;;;;;;;4.95;0.80;;;;;;;;;;5014329;28;20050;-40
2023/03/07 10:10:00;;;;;;;1.00;0.80;;;;;;;;;;5012753;28;20140;-37
2023/03/07 10:12:32;;;;;;;2.33;0.80;;;;;;;;;;5012751;28;20111;-40
2023/03/07 10:15:03;;;;;;;2.92;1.20;;;;;;;;;;5012066;28;20042;-35
2023/03/07 10:17:36;;;;;;;2.25;0.75;;;;;;;;;;5012499;28;20057;-35
2023/03/07 10:20:08;;;;;;;4.38;1.05;;;19.50;43.20;;;;;;5012476;28;20060;-40
2023/03/07 10:22:36;;;;;;;2.13;1.00;;;;;;;;;;5013927;28;20057;-40
2023/03/07 10:25:09;;;;;;;1.42;0.85;;;;;;;;;;5010749;28;20495;-40
2023/03/07 10:27:36;;;;;;;1.60;0.73;;;;;;;;;;5013570;28;20126;-38
2023/03/07 10:30:07;;;;;;;1.88;0.90;;;;;;;;;;5012158;28;20406;-37
2023/03/07 10:32:35;;;;;;;1.92;0.90;;;;;;;;;;5014062;28;20056;-38
2023/03/07 10:35:05;;;;;;;1.73;0.80;;;;;;;;;;5012353;28;20499;-39
2023/03/07 10:37:42;;;;;;;2.40;1.02;;;19.20;43.60;;;;;;5013080;28;20060;-39
2023/03/07 10:40:13;;;;;;;2.22;0.80;;;;;;;;;;5013839;28;20062;-38
2023/03/07 10:42:41;;;;;;;1.83;0.90;;;;;;;;;;5013341;28;20053;-39
2023/03/07 10:45:12;;;;;;;3.80;1.10;;;19.30;43.80;;;;;;4137833;28;10000901;-39
2023/03/07 10:47:39;;;;;;;2.40;0.90;;;;;;;;;;4978358;28;20064;-41
2023/03/07 10:50:16;;;;;;;1.58;1.10;;;19.20;43.90;;;;;;4993956;28;20050;-38
2023/03/07 10:52:43;;;;;;;4.35;1.27;;;;;;;;;;4994110;28;20047;-41
2023/03/07 10:55:29;;;;;;;3.33;1.02;;;;;;;;;;4975591;28;20054;-40
2023/03/07 10:58:13;;;;;;;5.78;1.08;;;19.20;45.00;;;;;;4975301;28;20051;-35
2023/03/07 11:00:40;;;;;;;2.53;0.88;;;;;;;;;;4991042;28;20463;-35
2023/03/07 11:03:19;;;;;;;3.65;0.80;;;;;;;;;;4976098;28;20065;-40
2023/03/07 11:05:47;;;;;;;3.65;0.93;;;;;;;;;;4977723;28;20049;-38
2023/03/07 11:08:20;;;;;;;2.80;0.70;;;;;;;;;;4975169;28;20138;-41
2023/03/07 11:10:47;;;;;;;4.05;1.17;;;;;;;;;;4951878;28;20062;-40
2023/03/07 11:13:16;;;;;;;5.38;0.98;;;;;;;;;;4983149;28;20109;-41
2023/03/07 11:15:44;;;;;;;3.55;0.90;;;;;;;;;;4987356;28;20046;-38
2023/03/07 11:18:25;;;;;;;2.33;0.95;;;;;;;;;;4994131;28;20054;-40
2023/03/07 11:20:52;;;;;;;2.78;1.00;;;;;;;;;;4993824;28;20050;-41
2023/03/07 11:23:22;;;;;;;2.80;0.90;;;19.20;43.60;;;;;;4993620;28;20050;-39
2023/03/07 11:25:49;;;;;;;1.02;0.70;;;;;;;;;;4993827;28;20080;-39
2023/03/07 11:28:30;;;;;;;4.70;0.82;;;;;;;;;;4993573;28;20054;-39
2023/03/07 11:31:03;;;;;;;1.52;0.77;;;;;;;;;;4993908;28;20086;-36
2023/03/07 11:33:37;;;;;;;2.90;0.90;;;19.30;42.90;;;;;;4993083;28;20410;-39
2023/03/07 11:36:04;;;;;;;2.10;0.88;;;;;;;;;;4995887;28;20050;-40
2023/03/07 11:38:42;;;;;;;1.42;0.73;;;;;;;;;;5003692;28;20045;-40
2023/03/07 11:41:11;;;;;;;3.05;0.98;;;19.20;43.50;;;;;;4999214;28;20050;-36
2023/03/07 11:43:55;;;;;;;1.50;0.95;;;19.30;43.10;;;;;;4998037;28;20041;-37
2023/03/07 11:46:24;;;;;;;1.88;1.00;;;;;;;;;;5002109;28;20050;-38
2023/03/07 11:48:53;;;;;;;3.58;1.20;;;;;;;;;;5012589;28;20488;-36
2023/03/07 11:51:25;;;;;;;3.20;1.50;;;;;;;;;;4993285;28;20137;-40
2023/03/07 11:53:56;;;;;;;3.75;1.73;;;19.30;43.20;;;;;;4995228;28;20062;-38
2023/03/07 11:56:24;;;;;;;4.20;1.90;;;;;;;;;;4997723;28;20050;-41
2023/03/07 11:58:58;;;;;;;5.60;1.95;;;;;;;;;;4997994;28;20134;-37
2023/03/07 12:01:26;;;;;;;3.45;2.10;;;;;;;;;;4996205;28;20050;-40
2023/03/07 12:04:10;;;;;;;3.33;1.85;;;;;;;;;;4997592;28;20054;-40
2023/03/07 12:06:39;;;;;;;3.85;1.90;;;;;;;;;;4995243;28;20451;-36
2023/03/07 12:09:17;;;;;;;3.05;2.15;;;19.40;43.20;;;;;;4992989;28;20496;-38
2023/03/07 12:11:51;;;;;;;4.88;2.53;;;;;;;;;;4992689;28;20054;-39
2023/03/07 12:14:22;;;;;;;3.25;1.90;;;19.40;43.40;;;;;;4992746;28;20046;-37
2023/03/07 12:16:52;;;;;;;3.58;2.10;;;;;;;;;;4993039;28;20418;-39
2023/03/07 12:19:29;;;;;;;3.65;2.33;;;19.40;43.30;;;;;;4992990;28;20054;-37
2023/03/07 12:22:07;;;;;;;3.97;2.35;;;;;;;;;;4992644;28;20401;-40
2023/03/07 12:24:35;;;;;;;2.83;2.13;;;;;;;;;;4992273;28;20046;-39
2023/03/07 12:27:03;;;;;;;3.20;1.98;;;19.40;42.50;;;;;;4992591;28;20488;-37
2023/03/07 12:29:34;;;;;;;3.58;2.17;;;;;;;;;;4992763;28;20420;-38
2023/03/07 12:32:01;;;;;;;4.07;2.10;;;;;;;;;;4992727;28;20065;-36
2023/03/07 12:34:30;;;;;;;2.90;2.08;;;19.40;43.40;;;;;;4992202;28;20050;-39
2023/03/07 12:36:58;;;;;;;3.65;2.20;;;;;;;;;;4991998;28;20423;-41
2023/03/07 12:39:27;;;;;;;3.90;2.10;;;19.10;55.00;;;;;;4992746;28;20050;-37
2023/03/07 12:41:56;;;;;;;3.20;2.13;;;;;;;;;;4992665;28;20054;-37
2023/03/07 12:44:30;;;;;;;3.50;2.05;;;;;;;;;;4992062;28;20050;-38
2023/03/07 12:47:00;;;;;;;3.35;2.17;;;;;;;;;;4992597;28;20050;-38
2023/03/07 12:49:31;;;;;;;5.13;2.00;;;19.20;43.50;;;;;;4992315;28;20415;-37
2023/03/07 12:51:58;;;;;;;4.05;2.10;;;;;;;;;;4994521;28;20048;-38
2023/03/07 12:54:27;;;;;;;3.83;2.22;;;19.20;43.60;;;;;;4999670;28;20061;-38
2023/03/07 12:56:55;;;;;;;4.38;2.38;;;;;;;;;;4998540;28;20042;-38
2023/03/07 12:59:21;;;;;;;3.00;2.28;;;18.90;74.00;;;;;;4997986;28;20460;-37
2023/03/07 13:01:49;;;;;;;2.95;1.92;;;;;;;;;;5004931;28;20050;-40
2023/03/07 13:04:18;;;;;;;3.08;1.70;;;19.10;43.60;;;;;;4999459;28;20046;-40
2023/03/07 13:06:45;;;;;;;2.72;1.83;;;;;;;;;;5000984;28;20068;-41
2023/03/07 13:09:16;;;;;;;3.80;1.95;;;19.10;43.60;;;;;;5005133;28;20054;-39
2023/03/07 13:11:58;;;;;;;3.30;1.90;;;;;;;;;;5006797;28;20076;-35
2023/03/07 13:14:37;;;;;;;2.70;1.77;;;;;;;;;;5006003;28;20048;-36
2023/03/07 13:17:04;;;;;;;2.85;1.70;;;;;;;;;;5001113;28;20052;-40
2023/03/07 13:19:52;;;;;;;3.15;1.60;;;19.20;43.60;;;;;;4996240;28;20050;-38
2023/03/07 13:23:02;;;;;;;2.88;1.60;;;19.10;41.90;;;;;;4995995;28;20081;-40
2023/03/07 13:25:42;;;;;;;2.17;1.73;;;19.10;43.50;;;;;;4984674;28;20048;-38
2023/03/07 13:28:45;;;;;;;2.58;1.65;;;19.10;43.50;;;;;;4996228;28;20462;-39
2023/03/07 13:31:29;;;;;;;3.25;1.70;;;;;;;;;;4988981;28;20058;-36
2023/03/07 13:33:56;;;;;;;3.38;1.67;;;;;;;;;;4980926;28;20121;-37
2023/03/07 13:36:34;;;;;;;4.05;1.60;;;;;;;;;;4994878;28;20046;-37
2023/03/07 13:39:01;;;;;;;3.85;1.35;;;;;;;;;;4995314;28;20058;-38
2023/03/07 13:41:45;;;;;;;2.60;1.65;;;19.20;43.10;;;;;;4995733;28;20133;-35
2023/03/07 13:44:27;;;;;;;2.20;1.48;;;19.20;43.70;;;;;;4995776;28;20411;-40
2023/03/07 13:47:00;;;;;;;3.15;1.50;;;;;;;;;;4995513;28;20134;-39
2023/03/07 13:49:40;;;;;;;2.30;1.30;;;19.40;43.80;;;;;;4995675;28;20046;-35
2023/03/07 13:52:35;;;;;;;2.22;1.35;;;;;;;;;;4995136;28;20125;-37
2023/03/07 13:55:04;;;;;;;2.58;1.13;;;19.40;43.60;;;;;;4995551;28;20105;-38
2023/03/07 13:57:37;;;;;;;3.03;1.40;;;;;;;;;;4995165;28;20056;-38
2023/03/07 14:00:04;;;;;;;2.08;1.33;;;;;;;;;;4995175;28;20056;-38
2023/03/07 14:02:31;;;;;;;3.00;1.30;;;;;;;;;;4995127;28;20054;-39
2023/03/07 14:04:58;;;;;;;2.05;1.20;;;;;;;;;;4995245;28;20390;-40
2023/03/07 14:07:26;;;;;;;2.38;1.48;;;19.40;42.80;;;;;;4995090;28;20521;-39
2023/03/07 14:09:54;;;;;;;2.50;1.20;;;;;;;;;;4995154;28;20065;-39
2023/03/07 14:12:25;;;;;;;3.30;1.15;;;;;;;;;;4994912;28;20706;-39
2023/03/07 14:15:00;;;;;;;2.28;1.30;;;19.40;43.30;;;;;;4994999;28;20050;-38
2023/03/07 14:17:34;;;;;;;1.43;1.00;;;19.40;42.30;;;;;;4994594;28;20060;-37
2023/03/07 14:20:07;;;;;;;;;;;;;;;;;;4995162;28;20061;-34